Time;durP1;ratioP1;P1;durP2;ratioP2;P2;SDS_P1;SDS_P2;PMS_P1;PMS_P2;Temp;Humidity;BMP_temperature;BMP_pressure;BME280_temperature;BME280_humidity;BME280_pressure;Samples;Min_cycle;Max_cycle;Signal;HPM_P1;HPM_P2
2022/04/20 00:00:35;;;;;;;68.40;32.00;;;;;;;1.51;66.88;100265.96;105638;1272;22574;-57
2022/04/20 00:03:07;;;;;;;68.70;32.30;;;;;;;1.50;66.88;100267.85;105573;1271;23097;-56
2022/04/20 00:05:39;;;;;;;68.60;31.80;;;;;;;1.49;67.04;100268.66;105633;1271;22586;-57
2022/04/20 00:08:10;;;;;;;68.10;32.80;;;;;;;1.46;67.24;100270.80;105577;1271;25481;-56
2022/04/20 00:10:45;;;;;;;73.50;33.20;;;;;;;1.44;67.09;100272.44;105600;1271;22551;-56
2022/04/20 00:13:17;;;;;;;63.10;30.90;;;;;;;1.41;67.28;100272.48;105560;1272;22604;-58
2022/04/20 00:15:48;;;;;;;73.00;34.20;;;;;;;1.38;67.61;100272.36;105675;1271;25670;-55
2022/04/20 00:18:20;;;;;;;70.00;29.80;;;;;;;1.36;67.52;100267.36;105635;1271;22560;-56
2022/04/20 00:20:51;;;;;;;64.10;29.60;;;;;;;1.36;67.61;100269.56;105742;1271;26618;-57
2022/04/20 00:23:23;;;;;;;65.60;32.80;;;;;;;1.35;67.77;100268.80;105939;1271;22548;-57
2022/04/20 00:25:54;;;;;;;64.00;29.30;;;;;;;1.34;67.67;100265.52;105808;1271;22532;-57
2022/04/20 00:28:25;;;;;;;68.20;33.10;;;;;;;1.33;68.00;100263.56;105759;1271;22987;-56
2022/04/20 00:30:56;;;;;;;61.00;29.30;;;;;;;1.33;67.78;100261.52;105789;1271;22551;-57
2022/04/20 00:33:28;;;;;;;61.00;29.00;;;;;;;1.33;68.15;100264.02;105723;1271;22621;-54
2022/04/20 00:36:01;;;;;;;62.40;29.90;;;;;;;1.33;68.44;100264.66;105878;1271;27677;-57
2022/04/20 00:38:33;;;;;;;62.90;31.80;;;;;;;1.31;68.68;100264.13;106150;1272;23472;-57
2022/04/20 00:41:04;;;;;;;66.80;32.40;;;;;;;1.31;68.82;100265.33;105870;1271;24237;-54
2022/04/20 00:43:35;;;;;;;61.50;29.80;;;;;;;1.29;68.98;100265.82;105795;1272;22656;-55
2022/04/20 00:46:07;;;;;;;60.60;29.90;;;;;;;1.32;69.03;100262.00;105700;1272;23410;-58
2022/04/20 00:48:40;;;;;;;64.10;30.40;;;;;;;1.34;69.15;100255.07;105729;1272;23209;-56
2022/04/20 00:51:12;;;;;;;55.80;26.40;;;;;;;1.34;69.60;100248.70;105730;1272;23403;-54
2022/04/20 00:53:43;;;;;;;57.50;28.10;;;;;;;1.35;69.92;100242.00;105542;1272;25344;-57
2022/04/20 00:56:14;;;;;;;53.90;26.80;;;;;;;1.36;70.27;100242.22;105639;1272;22616;-57
2022/04/20 00:58:47;;;;;;;56.30;26.90;;;;;;;1.38;70.42;100240.78;105819;1271;26020;-56
2022/04/20 01:01:19;;;;;;;50.90;26.30;;;;;;;1.41;70.46;100244.80;105789;1272;22528;-57
2022/04/20 01:03:50;;;;;;;54.10;27.30;;;;;;;1.44;70.57;100245.55;105568;1272;22569;-57
2022/04/20 01:06:22;;;;;;;53.40;24.70;;;;;;;1.47;70.55;100250.05;105648;1272;22626;-57
2022/04/20 01:08:53;;;;;;;50.10;24.80;;;;;;;1.49;70.59;100242.17;105567;1272;25470;-57
2022/04/20 01:11:26;;;;;;;49.40;24.70;;;;;;;1.52;70.79;100246.36;105795;1271;22531;-57
2022/04/20 01:13:57;;;;;;;52.90;25.40;;;;;;;1.53;70.84;100250.20;105707;1272;24268;-55
2022/04/20 01:16:29;;;;;;;54.30;26.40;;;;;;;1.54;70.90;100250.96;105705;1272;24679;-56
2022/04/20 01:19:01;;;;;;;49.10;25.90;;;;;;;1.55;70.95;100241.75;105672;1271;22584;-58
2022/04/20 01:21:32;;;;;;;49.50;24.70;;;;;;;1.57;70.90;100236.77;105791;1272;22535;-56
2022/04/20 01:24:04;;;;;;;57.20;26.80;;;;;;;1.61;71.05;100236.23;105677;1271;22557;-57
2022/04/20 01:26:36;;;;;;;57.40;26.90;;;;;;;1.62;71.02;100240.06;105682;1272;22535;-54
2022/04/20 01:29:09;;;;;;;47.20;24.10;;;;;;;1.63;71.08;100236.18;105688;1272;24247;-58
2022/04/20 01:31:40;;;;;;;58.10;26.00;;;;;;;1.65;71.20;100232.31;105690;1271;24241;-57
2022/04/20 01:34:12;;;;;;;52.20;25.40;;;;;;;1.66;71.36;100230.88;105685;1272;22528;-57
2022/04/20 01:36:43;;;;;;;52.40;26.10;;;;;;;1.68;71.41;100231.56;105630;1271;22535;-57
2022/04/20 01:39:15;;;;;;;57.00;25.70;;;;;;;1.68;71.44;100230.30;105642;1272;22547;-57
2022/04/20 01:41:47;;;;;;;54.10;25.90;;;;;;;1.69;71.35;100229.02;105777;1272;22760;-58
2022/04/20 01:44:18;;;;;;;49.90;23.60;;;;;;;1.70;71.59;100230.50;105586;1272;24948;-55
2022/04/20 01:46:50;;;;;;;49.10;25.00;;;;;;;1.71;71.45;100229.15;105549;1271;24315;-57
2022/04/20 01:49:21;;;;;;;52.40;24.60;;;;;;;1.71;71.45;100230.09;105723;1272;25292;-57
2022/04/20 01:51:52;;;;;;;48.00;25.30;;;;;;;1.70;71.52;100225.92;105848;1272;22552;-57
2022/04/20 01:54:24;;;;;;;47.50;22.90;;;;;;;1.70;71.70;100225.69;105559;1272;22535;-54
2022/04/20 01:56:57;;;;;;;50.80;24.80;;;;;;;1.71;71.81;100227.25;105599;1271;24718;-56
2022/04/20 01:59:28;;;;;;;50.40;23.20;;;;;;;1.73;71.78;100228.48;105628;1272;23053;-56
2022/04/20 02:04:49;;;;;;;49.00;23.00;;;;;;;1.76;72.03;100228.27;105554;1272;22557;-56
2022/04/20 02:07:20;;;;;;;49.00;23.70;;;;;;;1.77;72.09;100227.06;105571;1272;22619;-57
2022/04/20 02:09:53;;;;;;;51.40;24.70;;;;;;;1.79;72.19;100231.52;105672;1272;25360;-57
2022/04/20 02:12:25;;;;;;;51.30;25.30;;;;;;;1.80;72.32;100231.19;105623;1272;23200;-57
2022/04/20 02:14:57;;;;;;;56.80;26.50;;;;;;;1.83;72.40;100229.71;105615;1271;25692;-55
2022/04/20 02:17:29;;;;;;;53.60;24.60;;;;;;;1.85;72.45;100226.55;105683;1271;22544;-57
2022/04/20 02:20:01;;;;;;;62.30;25.70;;;;;;;1.86;72.61;100226.29;105574;1271;25263;-56
2022/04/20 02:22:32;;;;;;;56.50;27.30;;;;;;;1.87;72.96;100223.75;105665;1271;22645;-57
2022/04/20 02:25:05;;;;;;;54.50;25.70;;;;;;;1.89;73.19;100226.16;105774;1272;22556;-58
2022/04/20 02:27:37;;;;;;;54.70;26.70;;;;;;;1.91;73.25;100224.85;105619;1272;22546;-57
2022/04/20 02:30:10;;;;;;;52.90;25.90;;;;;;;1.93;73.26;100222.77;105559;1272;25583;-56
2022/04/20 02:32:41;;;;;;;60.10;28.20;;;;;;;1.95;73.39;100224.08;105604;1272;22616;-57
2022/04/20 02:35:13;;;;;;;55.30;28.70;;;;;;;1.97;73.61;100225.06;105630;1272;22539;-57
2022/04/20 02:37:44;;;;;;;49.20;24.30;;;;;;;1.97;74.01;100226.47;105743;1272;24280;-56
2022/04/20 02:40:16;;;;;;;51.80;27.60;;;;;;;1.98;74.00;100219.70;105735;1272;24400;-58
2022/04/20 02:42:48;;;;;;;53.90;25.60;;;;;;;1.99;73.87;100216.36;105725;1272;22537;-55
2022/04/20 02:45:20;;;;;;;51.40;24.20;;;;;;;2.02;73.72;100210.02;105667;1272;22591;-57
2022/04/20 02:47:52;;;;;;;50.50;25.10;;;;;;;2.04;73.95;100212.04;105648;1272;25626;-55
2022/04/20 02:50:23;;;;;;;53.30;25.50;;;;;;;2.07;74.03;100211.66;105624;1272;24324;-57
2022/04/20 02:52:55;;;;;;;54.50;26.70;;;;;;;2.10;74.15;100212.56;105576;1272;24316;-56
2022/04/20 02:55:26;;;;;;;55.50;26.20;;;;;;;2.12;73.80;100212.04;105617;1272;22581;-59
2022/04/20 02:57:58;;;;;;;52.30;26.30;;;;;;;2.14;73.75;100211.76;105700;1271;22544;-58
2022/04/20 03:00:30;;;;;;;52.90;25.40;;;;;;;2.17;73.86;100217.60;105773;1272;24694;-56
2022/04/20 03:03:02;;;;;;;46.90;23.90;;;;;;;2.21;74.03;100213.44;105579;1272;22580;-54
2022/04/20 03:05:33;;;;;;;48.70;24.90;;;;;;;2.24;74.18;100211.65;105642;1272;22528;-56
2022/04/20 03:08:06;;;;;;;53.80;25.90;;;;;;;2.26;74.47;100210.58;106210;1272;24754;-58
2022/04/20 03:10:38;;;;;;;58.10;27.00;;;;;;;2.28;74.55;100210.30;105752;1272;22582;-56
2022/04/20 03:13:09;;;;;;;59.20;27.70;;;;;;;2.30;74.59;100214.27;105643;1272;28431;-58
2022/04/20 03:15:42;;;;;;;55.50;27.20;;;;;;;2.32;74.43;100216.36;105595;1271;22572;-59
2022/04/20 03:18:13;;;;;;;51.20;24.90;;;;;;;2.35;74.22;100219.38;105824;1271;25253;-58
2022/04/20 03:20:44;;;;;;;51.80;25.60;;;;;;;2.38;74.33;100222.38;105628;1271;22569;-58
2022/04/20 03:23:16;;;;;;;57.20;27.90;;;;;;;2.40;74.03;100223.77;105611;1271;25262;-57
2022/04/20 03:25:47;;;;;;;52.10;24.80;;;;;;;2.43;74.23;100227.09;105618;1272;22608;-56
2022/04/20 03:28:18;;;;;;;63.20;29.00;;;;;;;2.45;74.17;100231.05;105651;1272;24384;-57
2022/04/20 03:30:50;;;;;;;58.30;28.70;;;;;;;2.49;74.18;100229.65;105598;1272;22551;-56
2022/04/20 03:33:22;;;;;;;60.00;27.70;;;;;;;2.52;74.43;100227.54;105629;1272;22544;-55
2022/04/20 03:35:55;;;;;;;52.70;26.10;;;;;;;2.55;74.43;100224.24;105830;1272;22526;-53
2022/04/20 03:38:27;;;;;;;50.50;26.00;;;;;;;2.57;74.56;100223.27;105625;1272;25545;-56
2022/04/20 03:40:58;;;;;;;56.20;27.50;;;;;;;2.58;74.59;100219.77;105572;1271;25513;-56
2022/04/20 03:43:30;;;;;;;52.30;24.30;;;;;;;2.61;74.69;100220.34;105565;1272;25282;-56
2022/04/20 03:46:01;;;;;;;55.80;25.90;;;;;;;2.64;74.64;100212.56;105596;1272;22570;-57
2022/04/20 03:48:33;;;;;;;53.20;25.20;;;;;;;2.68;74.82;100211.45;105741;1272;25349;-56
2022/04/20 03:51:04;;;;;;;53.50;25.90;;;;;;;2.69;74.89;100206.22;105688;1272;25263;-59
2022/04/20 03:53:36;;;;;;;53.50;24.50;;;;;;;2.71;74.84;100203.20;105839;1272;25439;-56
2022/04/20 03:56:08;;;;;;;51.10;24.80;;;;;;;2.74;74.80;100206.84;105636;1272;24307;-53
2022/04/20 03:58:39;;;;;;;47.40;23.90;;;;;;;2.75;74.70;100207.20;105666;1272;24383;-58
2022/04/20 04:01:11;;;;;;;54.10;24.80;;;;;;;2.76;74.72;100207.48;105591;1272;25323;-56
2022/04/20 04:03:43;;;;;;;45.90;23.80;;;;;;;2.78;74.86;100212.27;105591;1271;22573;-56
2022/04/20 04:06:15;;;;;;;46.80;24.70;;;;;;;2.79;74.70;100211.68;105799;1271;26521;-56
2022/04/20 04:08:47;;;;;;;53.30;24.80;;;;;;;2.81;74.68;100207.23;105786;1271;22758;-56
2022/04/20 04:11:19;;;;;;;50.40;24.60;;;;;;;2.83;74.73;100211.27;105660;1272;22596;-53
2022/04/20 04:13:51;;;;;;;49.00;23.80;;;;;;;2.86;74.75;100209.88;105635;1272;25577;-56
2022/04/20 04:16:23;;;;;;;47.90;23.10;;;;;;;2.88;74.68;100214.08;105580;1272;24265;-56
2022/04/20 04:18:54;;;;;;;50.60;24.30;;;;;;;2.91;74.76;100217.02;105832;1272;26982;-55
2022/04/20 04:21:25;;;;;;;48.10;23.00;;;;;;;2.93;74.83;100213.73;105684;1272;25612;-55
2022/04/20 04:23:57;;;;;;;48.40;22.40;;;;;;;2.96;74.93;100217.95;105713;1271;22559;-56
2022/04/20 04:26:30;;;;;;;50.40;23.30;;;;;;;2.97;74.91;100210.89;105656;1272;25414;-53
2022/04/20 04:29:01;;;;;;;46.70;20.90;;;;;;;2.99;75.02;100206.44;105907;1272;22535;-54
2022/04/20 04:31:34;;;;;;;45.10;20.50;;;;;;;2.99;74.96;100202.95;105508;1272;22540;-55
2022/04/20 04:34:06;;;;;;;47.30;20.40;;;;;;;3.01;75.00;100198.66;105617;1272;24313;-58
2022/04/20 04:36:37;;;;;;;39.80;19.10;;;;;;;3.04;75.01;100205.21;105686;1272;22531;-55
2022/04/20 04:39:08;;;;;;;42.90;20.40;;;;;;;3.07;75.06;100204.14;105708;1272;22619;-54
2022/04/20 04:41:42;;;;;;;40.30;20.70;;;;;;;3.09;75.00;100202.42;105913;1272;24324;-54
2022/04/20 04:44:13;;;;;;;44.50;21.70;;;;;;;3.11;75.08;100200.71;105592;1272;24332;-57
2022/04/20 04:49:35;;;;;;;48.60;21.60;;;;;;;3.16;75.23;100193.89;105568;1272;24299;-56
2022/04/20 04:52:11;;;;;;;41.40;21.70;;;;;;;3.20;75.24;100192.08;105713;1272;25241;-58
2022/04/20 04:54:42;;;;;;;45.90;20.80;;;;;;;3.22;75.36;100195.25;105523;1272;25323;-57
2022/04/20 04:57:16;;;;;;;42.30;19.00;;;;;;;3.24;75.43;100189.04;105594;1271;22528;-54
2022/04/20 04:59:47;;;;;;;42.10;19.80;;;;;;;3.27;75.35;100191.91;105511;1272;24247;-59
2022/04/20 05:02:19;;;;;;;46.00;22.00;;;;;;;3.30;75.27;100193.80;105661;1272;24150;-58
2022/04/20 05:04:51;;;;;;;39.90;19.70;;;;;;;3.32;75.26;100192.41;105825;1272;22566;-55
2022/04/20 05:07:23;;;;;;;37.10;17.70;;;;;;;3.35;75.14;100187.92;105590;1272;25274;-56
2022/04/20 05:09:55;;;;;;;41.10;18.50;;;;;;;3.39;75.11;100189.48;105763;1272;22609;-57
2022/04/20 05:12:27;;;;;;;37.00;17.70;;;;;;;3.42;75.04;100191.31;105774;1272;22557;-55
2022/04/20 05:14:58;;;;;;;40.10;19.60;;;;;;;3.45;75.11;100187.05;105597;1272;25269;-54
2022/04/20 05:17:30;;;;;;;43.00;21.30;;;;;;;3.48;74.95;100186.89;105581;1271;22570;-55
2022/04/20 05:20:01;;;;;;;39.80;19.60;;;;;;;3.50;75.04;100191.42;105684;1272;22553;-55
2022/04/20 05:22:32;;;;;;;37.30;18.50;;;;;;;3.53;75.04;100189.16;105468;1271;25354;-56
2022/04/20 05:25:04;;;;;;;37.30;18.00;;;;;;;3.56;75.02;100187.80;105905;1271;22515;-57
2022/04/20 05:27:36;;;;;;;39.00;18.10;;;;;;;3.60;74.95;100185.40;105846;1272;22663;-58
2022/04/20 05:30:09;;;;;;;38.70;17.80;;;;;;;3.64;74.89;100182.48;105636;1272;22557;-57
2022/04/20 05:32:41;;;;;;;40.60;18.70;;;;;;;3.67;74.85;100181.73;105700;1272;23399;-55
2022/04/20 05:35:13;;;;;;;39.00;18.50;;;;;;;3.71;74.88;100181.02;105570;1272;22706;-55
2022/04/20 05:43:24;;;;;;;38.60;17.90;;;;;;;3.82;74.67;100175.20;105836;1271;22551;-56
2022/04/20 05:45:56;;;;;;;34.80;17.40;;;;;;;3.85;74.48;100170.06;105727;1271;22722;-57
2022/04/20 05:48:29;;;;;;;40.30;16.60;;;;;;;3.90;74.45;100170.27;105748;1272;23109;-55
2022/04/20 05:51:02;;;;;;;37.50;17.50;;;;;;;3.94;74.62;100169.03;105853;1272;22521;-55
2022/04/20 05:53:33;;;;;;;47.70;19.90;;;;;;;3.99;74.65;100166.47;105680;1271;22790;-56
2022/04/20 05:56:05;;;;;;;36.70;19.00;;;;;;;4.03;74.65;100165.63;105598;1272;25441;-57
2022/04/20 05:58:37;;;;;;;41.60;21.10;;;;;;;4.07;74.67;100161.66;105621;1272;22532;-55
2022/04/20 06:01:09;;;;;;;43.00;19.70;;;;;;;4.10;74.48;100162.21;105540;1272;22566;-57
2022/04/20 06:03:42;;;;;;;29.90;15.80;;;;;;;4.14;73.90;100158.71;105763;1272;22561;-56
2022/04/20 06:06:15;;;;;;;31.10;15.50;;;;;;;4.18;73.51;100157.96;105738;1272;26613;-58
2022/04/20 06:08:47;;;;;;;30.30;14.10;;;;;;;4.22;73.11;100155.64;105979;1271;22551;-58
2022/04/20 06:11:19;;;;;;;30.10;13.40;;;;;;;4.26;72.92;100153.02;105695;1272;25697;-56
2022/04/20 06:13:50;;;;;;;32.20;15.40;;;;;;;4.31;72.62;100155.95;105926;1272;25328;-57
2022/04/20 06:16:22;;;;;;;34.40;14.60;;;;;;;4.35;72.52;100154.41;105855;1271;22547;-57
2022/04/20 06:18:56;;;;;;;33.50;15.90;;;;;;;4.40;72.85;100150.95;105886;1271;22532;-56
2022/04/20 06:21:28;;;;;;;31.50;15.30;;;;;;;4.46;73.17;100150.14;105807;1271;22544;-56
2022/04/20 06:24:00;;;;;;;37.10;17.20;;;;;;;4.52;73.10;100148.78;105695;1271;25721;-54
2022/04/20 06:26:32;;;;;;;37.10;15.70;;;;;;;4.57;73.25;100141.11;105762;1272;24240;-57
2022/04/20 06:29:03;;;;;;;33.90;16.40;;;;;;;4.63;73.28;100138.89;105734;1270;22560;-57
2022/04/20 06:31:35;;;;;;;33.80;16.70;;;;;;;4.69;73.22;100135.92;105836;1271;22564;-55
2022/04/20 06:34:06;;;;;;;32.20;14.90;;;;;;;4.73;72.97;100134.70;106018;1271;25602;-58
2022/04/20 06:36:38;;;;;;;35.10;15.10;;;;;;;4.78;72.94;100133.88;105833;1271;22658;-58
2022/04/20 06:39:10;;;;;;;31.50;15.40;;;;;;;4.84;72.83;100133.72;105723;1272;24299;-57
2022/04/20 06:41:43;;;;;;;34.40;14.80;;;;;;;4.89;72.73;100132.12;105838;1271;22535;-57
2022/04/20 06:44:14;;;;;;;29.70;13.30;;;;;;;4.95;72.48;100128.38;105775;1271;24854;-55
2022/04/20 06:46:47;;;;;;;34.80;16.20;;;;;;;5.01;72.46;100126.30;105862;1272;22702;-56
2022/04/20 06:49:18;;;;;;;29.90;13.40;;;;;;;5.07;72.37;100121.38;105705;1271;22557;-58
2022/04/20 07:00:17;;;;;;;31.80;14.80;;;;;;;5.29;71.87;100123.65;105854;1271;22703;-57
2022/04/20 07:02:58;;;;;;;31.70;13.30;;;;;;;5.34;71.84;100122.44;105828;1272;22561;-57
2022/04/20 07:05:30;;;;;;;36.00;15.00;;;;;;;5.39;71.47;100118.30;106061;1271;25535;-58
2022/04/20 07:08:02;;;;;;;29.30;12.80;;;;;;;5.45;71.35;100119.95;106035;1271;25253;-57
2022/04/20 07:10:34;;;;;;;34.60;14.30;;;;;;;5.50;70.90;100120.00;106026;1271;24395;-57
2022/04/20 07:13:05;;;;;;;28.30;13.50;;;;;;;5.53;70.49;100121.31;105973;1272;24174;-56
2022/04/20 07:15:37;;;;;;;29.00;13.20;;;;;;;5.56;70.31;100123.11;105745;1272;25505;-57
2022/04/20 07:18:08;;;;;;;25.90;11.50;;;;;;;5.58;70.31;100120.58;105684;1271;22546;-55
2022/04/20 07:20:40;;;;;;;30.90;12.50;;;;;;;5.61;69.94;100116.69;105906;1271;22658;-58
2022/04/20 07:23:12;;;;;;;31.90;13.30;;;;;;;5.63;69.98;100108.46;106096;1271;24303;-57
2022/04/20 07:25:44;;;;;;;28.80;14.00;;;;;;;5.66;69.94;100110.98;105879;1272;24410;-57
2022/04/20 07:28:16;;;;;;;31.90;14.50;;;;;;;5.69;69.95;100109.04;105933;1272;22563;-57
2022/04/20 07:30:47;;;;;;;27.30;13.60;;;;;;;5.73;69.80;100108.73;105835;1271;25963;-56
2022/04/20 07:33:19;;;;;;;32.50;13.60;;;;;;;5.77;69.44;100102.20;105808;1272;22591;-56
2022/04/20 07:35:51;;;;;;;29.50;13.00;;;;;;;5.81;69.12;100102.95;105828;1272;22526;-56
2022/04/20 07:38:25;;;;;;;26.40;12.10;;;;;;;5.83;68.69;100099.70;106096;1272;22577;-58
2022/04/20 07:40:57;;;;;;;28.20;12.50;;;;;;;5.85;68.50;100101.65;105673;1272;22529;-57
2022/04/20 07:43:29;;;;;;;29.20;12.20;;;;;;;5.87;68.53;100096.34;105761;1271;26509;-59
2022/04/20 07:46:03;;;;;;;28.20;11.10;;;;;;;5.90;68.49;100093.14;105725;1272;22563;-57
2022/04/20 07:48:34;;;;;;;23.50;10.90;;;;;;;5.93;67.84;100090.03;105810;1272;27259;-58
2022/04/20 07:51:05;;;;;;;23.90;9.40;;;;;;;5.94;67.01;100094.52;105852;1272;22573;-54
2022/04/20 07:53:37;;;;;;;22.60;9.40;;;;;;;5.93;66.85;100095.66;105621;1272;22664;-57
2022/04/20 07:56:10;;;;;;;20.90;9.10;;;;;;;5.93;67.26;100091.31;105626;1272;25431;-57
2022/04/20 07:58:41;;;;;;;26.50;10.00;;;;;;;5.96;67.41;100091.58;105847;1272;22625;-57
2022/04/20 08:01:14;;;;;;;23.70;8.40;;;;;;;6.00;67.61;100093.82;105748;1272;25530;-59
2022/04/20 08:03:45;;;;;;;21.60;8.70;;;;;;;6.02;66.63;100098.41;105786;1273;25269;-57
2022/04/20 08:06:17;;;;;;;22.10;8.80;;;;;;;6.04;66.51;100098.90;105753;1272;22537;-58
2022/04/20 08:08:48;;;;;;;22.10;9.60;;;;;;;6.05;66.28;100096.72;106093;1273;22611;-56
2022/04/20 08:11:19;;;;;;;18.00;6.80;;;;;;;6.06;66.48;100096.21;105835;1272;25522;-54
2022/04/20 08:16:40;;;;;;;21.80;8.00;;;;;;;6.09;65.45;100092.46;105575;1272;24350;-57
2022/04/20 08:19:11;;;;;;;20.20;8.10;;;;;;;6.10;65.59;100093.83;105811;1272;24411;-56
2022/04/20 08:21:44;;;;;;;22.60;8.90;;;;;;;6.11;65.50;100093.00;106552;1271;26491;-56
2022/04/20 08:24:16;;;;;;;21.70;9.10;;;;;;;6.13;65.69;100091.76;105954;1271;22705;-56
2022/04/20 08:26:48;;;;;;;22.30;8.80;;;;;;;6.15;65.67;100087.64;105841;1271;22574;-55
2022/04/20 08:29:20;;;;;;;26.20;9.20;;;;;;;6.18;66.17;100088.23;107082;1271;24233;-57
2022/04/20 08:31:51;;;;;;;20.20;8.60;;;;;;;6.25;65.87;100087.98;105764;1272;25394;-58
2022/04/20 08:34:27;;;;;;;25.50;10.30;;;;;;;6.28;65.70;100086.91;106535;1271;26108;-57
2022/04/20 08:36:58;;;;;;;26.10;10.20;;;;;;;6.29;66.11;100085.45;107924;1271;24292;-58
2022/04/20 08:39:30;;;;;;;22.20;9.60;;;;;;;6.31;66.36;100088.69;106277;1271;22529;-60
2022/04/20 08:42:03;;;;;;;25.40;9.60;;;;;;;6.32;66.62;100085.95;106408;1271;24304;-57
2022/04/20 08:44:38;;;;;;;22.20;9.90;;;;;;;6.32;67.08;100083.42;105676;1272;25667;-57
2022/04/20 08:47:12;;;;;;;23.30;9.90;;;;;;;6.35;68.28;100085.75;105701;1272;24085;-58
2022/04/20 08:49:45;;;;;;;21.70;8.40;;;;;;;6.40;68.24;100081.53;105884;1272;24214;-57
2022/04/20 08:55:14;;;;;;;21.70;9.90;;;;;;;6.40;68.31;100077.63;105809;1272;25327;-59
2022/04/20 08:57:49;;;;;;;24.20;10.10;;;;;;;6.42;68.95;100080.27;105878;1271;25223;-57
2022/04/20 09:00:25;;;;;;;22.70;10.20;;;;;;;6.43;68.92;100080.21;105949;1272;22553;-56
2022/04/20 09:03:00;;;;;;;21.90;9.90;;;;;;;6.45;69.78;100079.10;105808;1271;22814;-57
2022/04/20 09:05:34;;;;;;;25.70;9.60;;;;;;;6.48;69.69;100073.52;106061;1271;25698;-57
2022/04/20 09:08:12;;;;;;;21.40;9.80;;;;;;;6.49;70.12;100075.48;105857;1272;23006;-57
2022/04/20 09:10:46;;;;;;;20.10;8.00;;;;;;;6.51;70.18;100074.20;105752;1271;26275;-58
2022/04/20 09:13:17;;;;;;;20.20;7.20;;;;;;;6.53;70.21;100075.01;105726;1271;24303;-58
2022/04/20 09:15:50;;;;;;;20.00;7.90;;;;;;;6.50;70.65;100072.40;105645;1272;25295;-57
2022/04/20 09:18:24;;;;;;;19.70;8.10;;;;;;;6.49;70.91;100065.46;105605;1271;22692;-56
2022/04/20 09:21:04;;;;;;;19.20;8.30;;;;;;;6.50;71.47;100066.73;105676;1271;23030;-56
2022/04/20 09:23:36;;;;;;;21.40;7.80;;;;;;;6.47;71.68;100067.93;105911;1271;22549;-57
2022/04/20 09:26:12;;;;;;;18.40;7.10;;;;;;;6.44;71.74;100059.33;106037;1271;22985;-59
2022/04/20 09:29:04;;;;;;;21.10;7.90;;;;;;;6.44;72.13;100053.58;105922;1271;25287;-59
2022/04/20 09:31:45;;;;;;;21.90;8.60;;;;;;;6.43;72.35;100049.80;105782;1272;25264;-56
2022/04/20 09:34:53;;;;;;;17.70;7.70;;;;;;;6.43;72.29;100048.61;105695;1272;24311;-58
2022/04/20 09:37:25;;;;;;;18.80;8.30;;;;;;;6.45;73.29;100045.70;105613;1271;25943;-57
2022/04/20 09:39:57;;;;;;;20.40;7.80;;;;;;;6.46;72.69;100042.46;105732;1271;25468;-58
2022/04/20 09:42:29;;;;;;;22.80;8.20;;;;;;;6.47;72.96;100039.35;105797;1271;25342;-57
2022/04/20 09:45:02;;;;;;;20.60;9.00;;;;;;;6.44;73.10;100037.46;105876;1271;22555;-59
2022/04/20 09:50:27;;;;;;;21.00;8.70;;;;;;;6.57;73.89;100028.98;105805;1272;22563;-56
2022/04/20 09:53:06;;;;;;;19.30;9.00;;;;;;;6.58;73.88;100030.17;105958;1271;25561;-57
2022/04/20 09:55:40;;;;;;;20.90;9.80;;;;;;;6.61;74.08;100024.20;105686;1271;22558;-58
2022/04/20 09:58:19;;;;;;;22.00;9.80;;;;;;;6.65;73.86;100027.30;106164;1271;26509;-59
2022/04/20 10:00:51;;;;;;;21.40;9.10;;;;;;;6.65;73.66;100026.52;105916;1271;22611;-60
2022/04/20 10:03:31;;;;;;;23.10;10.20;;;;;;;6.65;74.18;100020.23;105724;1271;22614;-57
2022/04/20 10:06:03;;;;;;;23.50;9.30;;;;;;;6.63;74.33;100021.45;105843;1271;22550;-58
2022/04/20 10:08:34;;;;;;;20.30;9.00;;;;;;;6.58;74.22;100020.94;105760;1271;22545;-54
2022/04/20 10:11:07;;;;;;;22.80;10.40;;;;;;;6.54;74.52;100016.14;105838;1271;23923;-56
2022/04/20 10:13:40;;;;;;;21.10;9.60;;;;;;;6.53;74.63;100011.06;105870;1271;22529;-57
2022/04/20 10:16:14;;;;;;;18.90;9.30;;;;;;;6.52;74.74;100010.44;105871;1271;22538;-58
2022/04/20 10:18:50;;;;;;;20.60;9.30;;;;;;;6.51;74.87;100010.72;105936;1271;25487;-58
2022/04/20 10:21:23;;;;;;;22.10;10.00;;;;;;;6.52;75.11;100012.57;106190;1271;22551;-56
2022/04/20 10:23:57;;;;;;;21.60;10.60;;;;;;;6.54;75.30;100008.87;106027;1272;22538;-57
2022/04/20 10:26:29;;;;;;;26.80;10.90;;;;;;;6.56;75.50;100007.15;106046;1271;22560;-59
2022/04/20 10:29:09;;;;;;;21.70;9.60;;;;;;;6.58;76.05;100004.20;105922;1272;22533;-59
2022/04/20 10:31:47;;;;;;;21.90;10.70;;;;;;;6.57;75.68;100000.27;105953;1271;22672;-62
2022/04/20 10:34:20;;;;;;;21.60;10.40;;;;;;;6.54;75.76;100000.63;106371;1271;25267;-62
2022/04/20 10:37:04;;;;;;;21.40;9.10;;;;;;;6.53;75.87;100000.21;105849;1271;23106;-61
2022/04/20 10:39:41;;;;;;;20.40;9.10;;;;;;;6.50;75.87;99999.22;105760;1271;22623;-59
2022/04/20 10:42:25;;;;;;;21.60;9.70;;;;;;;6.45;75.95;99997.42;105647;1271;22714;-61
2022/04/20 10:45:06;;;;;;;23.50;9.60;;;;;;;6.43;76.28;99996.48;105394;1271;481614;-62
2022/04/20 10:47:40;;;;;;;24.80;11.60;;;;;;;6.42;76.49;99993.11;105719;1271;22584;-59
2022/04/20 10:50:19;;;;;;;19.90;9.90;;;;;;;6.43;76.87;99992.19;106061;1271;22534;-59
2022/04/20 10:52:57;;;;;;;21.70;9.70;;;;;;;6.42;76.47;99988.59;105702;1271;25385;-60
2022/04/20 10:55:53;;;;;;;20.80;9.80;;;;;;;6.40;76.65;99991.11;105680;1271;22560;-61
2022/04/20 10:58:25;;;;;;;21.20;8.90;;;;;;;6.37;76.72;99987.77;105914;1271;23336;-61
2022/04/20 11:01:14;;;;;;;16.50;6.70;;;;;;;6.35;77.19;99989.92;105843;1271;25370;-59
2022/04/20 11:04:07;;;;;;;19.00;7.00;;;;;;;6.33;77.49;99987.14;105946;1271;27570;-60
2022/04/20 11:07:16;;;;;;;16.00;7.00;;;;;;;6.33;77.55;99978.52;105945;1271;25261;-61
2022/04/20 11:10:00;;;;;;;16.30;6.20;;;;;;;6.36;78.18;99983.20;105774;1271;25401;-60
2022/04/20 11:18:42;;;;;;;15.30;7.20;;;;;;;6.41;78.29;99976.56;105933;1271;22485;-57
2022/04/20 11:21:19;;;;;;;19.10;7.30;;;;;;;6.41;78.51;99982.52;106003;1271;22700;-60
2022/04/20 11:23:57;;;;;;;16.20;6.40;;;;;;;6.42;78.78;99981.38;106063;1271;22569;-61
2022/04/20 11:26:34;;;;;;;12.70;4.20;;;;;;;6.43;78.93;99983.41;105858;1271;22545;-62
2022/04/20 11:29:14;;;;;;;11.50;4.50;;;;;;;6.41;78.69;99978.89;105725;1272;24230;-61
2022/04/20 11:31:50;;;;;;;10.80;4.70;;;;;;;6.39;78.96;99979.98;105877;1272;22541;-61
2022/04/20 11:34:24;;;;;;;11.30;3.10;;;;;;;6.36;78.75;99984.25;105817;1271;22530;-59
2022/04/20 11:37:00;;;;;;;9.80;2.90;;;;;;;6.32;79.08;99983.22;105830;1271;25249;-58
2022/04/20 11:39:32;;;;;;;6.70;1.60;;;;;;;6.30;78.78;99980.29;106050;1271;22584;-60
2022/04/20 11:42:05;;;;;;;9.90;2.10;;;;;;;6.27;78.46;99979.79;105864;1271;22540;-59
2022/04/20 11:44:41;;;;;;;8.60;2.10;;;;;;;6.25;78.96;99975.58;105813;1271;25514;-59
2022/04/20 11:47:17;;;;;;;8.40;2.20;;;;;;;6.26;79.28;99975.46;105853;1271;22597;-58
2022/04/20 11:49:49;;;;;;;9.40;2.40;;;;;;;6.28;79.39;99972.45;105739;1271;25433;-58
2022/04/20 11:52:21;;;;;;;6.80;1.90;;;;;;;6.28;79.48;99969.29;105788;1271;25353;-58
2022/04/20 11:54:53;;;;;;;8.40;1.90;;;;;;;6.28;79.39;99973.23;105801;1271;22545;-58
2022/04/20 11:57:24;;;;;;;7.70;1.70;;;;;;;6.30;79.75;99968.34;105702;1271;22569;-59
2022/04/20 12:00:00;;;;;;;6.30;1.70;;;;;;;6.33;79.97;99972.33;105916;1271;22592;-59
2022/04/20 12:02:32;;;;;;;6.80;1.50;;;;;;;6.33;79.80;99972.88;106052;1271;22582;-59
2022/04/20 12:05:12;;;;;;;6.80;1.90;;;;;;;6.31;79.57;99971.30;106098;1271;24292;-60
2022/04/20 12:07:42;;;;;;;;;;;;;;;6.29;79.68;99968.61;106267;1271;23495;-60
2022/04/20 12:10:15;;;;;;;6.00;1.50;;;;;;;6.24;79.65;99967.70;106109;1271;25248;-60
2022/04/20 12:12:47;;;;;;;6.30;1.60;;;;;;;6.18;79.65;99964.53;106254;1273;25353;-59
2022/04/20 12:15:22;;;;;;;6.10;1.70;;;;;;;6.15;80.01;99965.75;105889;1271;22573;-61